createdAt,value
2019-01-31T00:03:01.851Z,11.73
2019-01-31T00:09:22.888Z,10.57
2019-01-31T00:15:41.390Z,10.67
2019-01-31T00:22:12.784Z,12.03
2019-01-31T00:28:40.052Z,10.47
2019-01-31T00:34:55.081Z,10.37
2019-01-31T00:41:27.853Z,10.13
2019-01-31T00:47:52.634Z,8.57
2019-01-31T00:54:13.602Z,8.80
2019-01-31T01:00:28.720Z,9.47
2019-01-31T01:06:52.801Z,8.40
2019-01-31T01:13:13.973Z,8.13
2019-01-31T01:19:38.885Z,8.43
2019-01-31T01:25:56.736Z,8.90
2019-01-31T01:32:20.804Z,8.77
2019-01-31T01:38:56.921Z,8.13
2019-01-31T01:45:40.281Z,9.23
2019-01-31T01:51:52.297Z,7.97
2019-01-31T01:58:38.259Z,9.00
2019-01-31T02:05:15.830Z,9.37
2019-01-31T02:12:00.689Z,8.40
2019-01-31T02:18:24.360Z,9.07
2019-01-31T02:24:39.354Z,9.17
2019-01-31T02:30:51.420Z,8.80
2019-01-31T02:37:12.436Z,9.60
2019-01-31T02:43:24.401Z,9.30
2019-01-31T02:49:39.780Z,6.77
2019-01-31T02:55:58.194Z,8.30
2019-01-31T03:02:30.939Z,8.40
2019-01-31T03:08:51.749Z,7.00
2019-01-31T03:15:01.055Z,7.70
2019-01-31T03:21:23.261Z,5.63
2019-01-31T03:27:41.240Z,6.60
2019-01-31T03:34:15.977Z,6.60
2019-01-31T03:40:40.839Z,5.97
2019-01-31T03:47:07.989Z,6.47
2019-01-31T03:53:28.850Z,6.30
2019-01-31T03:59:36.217Z,6.00
2019-01-31T04:05:45.482Z,6.03
2019-01-31T04:11:57.060Z,5.87
2019-01-31T04:18:01.618Z,5.23
2019-01-31T04:24:06.361Z,6.40
2019-01-31T04:30:14.901Z,5.47
2019-01-31T04:36:21.147Z,6.33
2019-01-31T04:42:25.907Z,6.50
2019-01-31T04:48:30.543Z,5.27
2019-01-31T04:54:35.257Z,5.90
2019-01-31T05:00:40.151Z,5.70
2019-01-31T05:06:46.366Z,5.60
2019-01-31T05:12:50.988Z,6.10
2019-01-31T05:18:55.719Z,6.60
2019-01-31T05:25:00.360Z,6.23
2019-01-31T05:31:05.249Z,5.77
2019-01-31T05:37:10.438Z,6.50
2019-01-31T05:43:15.254Z,5.27
2019-01-31T05:49:19.934Z,6.23
2019-01-31T05:55:27.890Z,5.90
2019-01-31T06:01:32.609Z,6.30
2019-01-31T06:07:37.711Z,5.50
2019-01-31T06:13:42.681Z,5.20
2019-01-31T06:19:47.497Z,5.37
2019-01-31T06:25:52.279Z,5.83
2019-01-31T06:31:57.132Z,6.30
2019-01-31T06:38:02.016Z,6.87
2019-01-31T06:44:06.735Z,7.17
2019-01-31T06:50:11.998Z,6.37
2019-01-31T06:56:16.691Z,6.50
2019-01-31T07:02:21.602Z,6.10
2019-01-31T07:08:26.183Z,6.00
2019-01-31T07:14:30.762Z,6.00
2019-01-31T07:20:35.568Z,6.30
2019-01-31T07:26:41.570Z,6.40
2019-01-31T07:32:46.318Z,8.07
2019-01-31T07:38:50.960Z,6.50
2019-01-31T07:44:55.916Z,7.47
2019-01-31T07:51:00.574Z,6.30
2019-01-31T07:57:05.479Z,6.33
2019-01-31T08:03:10.334Z,7.30
2019-01-31T08:09:15.165Z,6.33
2019-01-31T08:15:20.759Z,6.67
2019-01-31T08:21:25.710Z,7.27
2019-01-31T08:27:30.541Z,7.13
2019-01-31T08:33:35.394Z,6.50
2019-01-31T08:39:40.668Z,6.17
2019-01-31T08:45:45.574Z,5.33
2019-01-31T08:51:50.227Z,6.10
2019-01-31T08:57:54.846Z,5.23
2019-01-31T09:03:59.471Z,5.40
2019-01-31T09:10:06.373Z,7.83
2019-01-31T09:16:11.315Z,6.33
2019-01-31T09:22:21.263Z,5.80
2019-01-31T09:29:12.010Z,5.80
2019-01-31T09:35:42.287Z,5.60
2019-01-31T09:41:56.956Z,5.37
2019-01-31T09:48:14.787Z,5.47
2019-01-31T09:54:42.273Z,5.23
2019-01-31T10:00:54.474Z,5.00
2019-01-31T10:07:21.279Z,4.83
2019-01-31T10:14:00.367Z,4.10
2019-01-31T10:20:49.580Z,4.13
2019-01-31T10:27:10.470Z,4.00
2019-01-31T10:33:19.767Z,3.70
2019-01-31T10:40:04.858Z,6.03
2019-01-31T10:46:19.852Z,7.20
2019-01-31T10:53:01.929Z,4.07
2019-01-31T10:59:19.562Z,3.63
2019-01-31T11:05:31.506Z,2.63
2019-01-31T11:12:06.098Z,2.90
2019-01-31T11:18:24.015Z,2.67
2019-01-31T11:25:03.237Z,2.50
2019-01-31T11:31:21.051Z,2.50
2019-01-31T11:37:36.011Z,2.30
2019-01-31T11:43:56.765Z,2.77
2019-01-31T11:50:20.872Z,2.83
2019-01-31T11:57:05.446Z,2.03
2019-01-31T12:03:07.542Z,2.60
2019-01-31T12:09:14.270Z,2.00
2019-01-31T12:15:18.967Z,2.23
2019-01-31T12:21:23.604Z,1.87
2019-01-31T12:27:28.288Z,1.83
2019-01-31T12:33:32.906Z,1.60
2019-01-31T12:39:37.579Z,1.90
2019-01-31T12:45:43.096Z,1.90
2019-01-31T12:51:47.755Z,2.00
2019-01-31T12:57:52.530Z,2.07
2019-01-31T13:03:57.156Z,1.63
2019-01-31T13:10:01.795Z,1.70
2019-01-31T13:16:06.646Z,2.20
2019-01-31T13:22:11.491Z,2.10
2019-01-31T13:28:16.264Z,1.70
2019-01-31T13:34:20.886Z,1.57
2019-01-31T13:40:26.845Z,1.77
2019-01-31T13:46:31.381Z,1.97
2019-01-31T13:52:38.764Z,1.70
2019-01-31T13:58:47.051Z,1.50
2019-01-31T14:04:51.949Z,1.83
2019-01-31T14:10:56.812Z,1.60
2019-01-31T14:17:01.349Z,1.40
2019-01-31T14:23:06.565Z,1.50
2019-01-31T14:29:12.253Z,1.70
2019-01-31T14:35:17.023Z,1.67
2019-01-31T14:41:21.626Z,1.80
2019-01-31T14:47:26.188Z,1.50
2019-01-31T14:53:30.965Z,2.00
2019-01-31T14:59:35.611Z,2.10
2019-01-31T15:05:40.312Z,1.70
2019-01-31T15:11:45.263Z,2.50
2019-01-31T15:17:52.897Z,1.97
2019-01-31T15:23:56.399Z,1.73
2019-01-31T15:30:00.941Z,2.13
2019-01-31T15:36:08.526Z,2.10
2019-01-31T15:42:13.580Z,2.27
2019-01-31T15:48:18.603Z,1.60
2019-01-31T15:54:23.227Z,2.00
2019-01-31T16:00:39.545Z,1.90
2019-01-31T16:06:44.324Z,1.90
2019-01-31T16:12:51.432Z,2.30
2019-01-31T16:18:56.102Z,1.90
2019-01-31T16:25:00.690Z,2.20
2019-01-31T16:31:05.741Z,1.90
2019-01-31T16:37:11.182Z,1.97
2019-01-31T16:43:15.823Z,2.17
2019-01-31T16:49:20.460Z,2.03
2019-01-31T16:55:28.389Z,1.97
2019-01-31T17:01:33.014Z,2.30
2019-01-31T17:07:37.721Z,1.90
2019-01-31T17:13:43.030Z,2.40
2019-01-31T17:19:47.797Z,2.57
2019-01-31T17:25:52.481Z,2.50
2019-01-31T17:31:57.036Z,2.60
2019-01-31T17:38:01.719Z,2.57
2019-01-31T17:44:06.345Z,2.80
2019-01-31T17:50:16.252Z,3.33
2019-01-31T18:02:31.544Z,2.63
2019-01-31T18:08:36.107Z,2.10
2019-01-31T18:14:40.908Z,2.43
2019-01-31T18:20:45.669Z,2.60
2019-01-31T18:26:50.223Z,2.63
2019-01-31T18:32:55.515Z,2.63
2019-01-31T18:39:00.068Z,2.27
2019-01-31T18:45:07.313Z,2.23
2019-01-31T18:51:12.384Z,2.80
2019-01-31T18:57:17.053Z,2.53
2019-01-31T19:03:21.694Z,3.00
2019-01-31T19:09:26.314Z,2.60
2019-01-31T19:15:31.089Z,2.73
2019-01-31T19:21:35.704Z,2.90
2019-01-31T19:27:40.489Z,4.00
2019-01-31T19:33:45.967Z,3.20
2019-01-31T19:39:50.547Z,2.90
2019-01-31T19:45:55.785Z,3.00
2019-01-31T19:52:00.384Z,3.23
2019-01-31T19:58:05.966Z,2.57
2019-01-31T20:04:10.907Z,2.40
2019-01-31T20:10:20.180Z,2.50
2019-01-31T20:16:28.868Z,2.83
2019-01-31T20:22:31.142Z,2.50
2019-01-31T20:28:35.763Z,2.63
2019-01-31T20:34:40.383Z,2.90
2019-01-31T20:40:45.200Z,2.97
2019-01-31T20:46:49.825Z,2.57
2019-01-31T20:52:54.630Z,2.60
2019-01-31T20:58:59.513Z,2.50
2019-01-31T21:05:04.622Z,3.20
2019-01-31T21:11:10.456Z,2.70
2019-01-31T21:17:15.267Z,2.50
2019-01-31T21:23:19.898Z,2.97
2019-01-31T21:29:24.596Z,2.53
2019-01-31T21:35:29.974Z,2.37
2019-01-31T21:41:34.728Z,2.97
2019-01-31T21:47:40.588Z,2.47
2019-01-31T21:53:45.304Z,2.70
2019-01-31T21:59:49.854Z,1.87
2019-01-31T22:05:54.475Z,2.00
2019-01-31T22:11:59.036Z,2.27
2019-01-31T22:18:03.870Z,2.40
2019-01-31T22:24:08.538Z,2.17
2019-01-31T22:30:17.952Z,2.57
2019-01-31T22:36:25.600Z,2.10
2019-01-31T22:42:30.245Z,2.50
2019-01-31T22:48:34.863Z,2.47
2019-01-31T22:54:39.434Z,2.27
2019-01-31T23:01:07.361Z,2.57
2019-01-31T23:07:12.631Z,2.43
2019-01-31T23:13:17.284Z,2.77
2019-01-31T23:19:22.005Z,2.70
2019-01-31T23:25:39.439Z,2.50
2019-01-31T23:31:35.288Z,3.30
2019-01-31T23:37:39.925Z,3.00
2019-01-31T23:43:44.572Z,3.70
2019-01-31T23:49:49.154Z,3.33
2019-01-31T23:55:53.825Z,3.77
